17th November 2012

If you wish to post your complete observations, with or without comments, please use this forum.

17th November 2012

Postby Richard Hunt » 2012 Nov 17, 21:41

Heavy rain overnight, cloudy and cool all day, sky cleared late afternoon, then the evening turned out clear and cold. Winds light.

HSEA 170015Z 23007KT 0500 RA FG OVC001 07/07 Q1008 RE+RA

HSEA 170715Z VRB02KT 2000 BR RA OVC001 07/07 Q1004 RMK RAIN OVERNIGHT 10.6MM

HSEA 170920Z VRB02KT 3000 BR -RA OVC001 07/07 Q1005 NOSIG

HSEA 171100Z 18005KT 9999 NSW BKN001 08/08 Q1005 RE-DZBR NOSIG

HSEA 171300Z 16008KT 9999 NSW OVC001 08/08 Q1005 NOSIG

HSEA 171520Z 18007KT 9999 NSW SCT001 08/08 Q1006 NOSIG

HSEA 172030Z 18010KT 9999 NSW SKC 04/04 Q1008 NOSIG
COL Station: 25020.

Watson W-8681 AWS. Standard Stevenson Screen. Maximum and Minimum screen thermometers. Grass minimum thermometer.
5" Copper standard rain gauge. Roof mounted annemometer.
Richard Hunt
 
Posts: 374
Joined: 2012 Jan 27, 19:23
Location: Hornsea, East Yorkshire. 10m AMSL

Return to Current Conditions



Who is online

Users browsing this forum: No registered users and 1 guest

cron